createdAt,value
2022-09-03T00:01:01.548Z,52.70
2022-09-03T00:03:43.068Z,52.60
2022-09-03T00:06:23.232Z,53.00
2022-09-03T00:09:09.301Z,53.00
2022-09-03T00:12:08.628Z,53.60
2022-09-03T00:15:04.543Z,53.30
2022-09-03T00:17:57.192Z,53.50
2022-09-03T00:20:46.848Z,53.90
2022-09-03T00:23:22.599Z,53.80
2022-09-03T00:25:55.750Z,53.50
2022-09-03T00:28:36.999Z,53.20
2022-09-03T00:31:34.043Z,54.10
2022-09-03T00:34:16.972Z,54.10
2022-09-03T00:36:49.976Z,53.70
2022-09-03T00:39:20.601Z,53.50
2022-09-03T00:41:59.514Z,53.70
2022-09-03T00:44:48.424Z,54.20
2022-09-03T00:47:58.303Z,54.40
2022-09-03T00:50:36.922Z,54.60
2022-09-03T00:53:28.159Z,53.80
2022-09-03T00:56:03.702Z,54.50
2022-09-03T00:58:55.776Z,54.30
2022-09-03T01:01:38.411Z,54.70
2022-09-03T01:04:33.055Z,54.70
2022-09-03T01:07:36.714Z,54.40
2022-09-03T01:10:44.533Z,54.50
2022-09-03T01:13:28.123Z,55.10
2022-09-03T01:16:16.843Z,55.20
2022-09-03T01:19:00.510Z,55.50
2022-09-03T01:22:00.187Z,54.50
2022-09-03T01:25:17.667Z,55.70
2022-09-03T01:28:13.548Z,55.70
2022-09-03T01:30:52.315Z,55.70
2022-09-03T01:33:35.047Z,55.30
2022-09-03T01:36:40.933Z,54.70
2022-09-03T01:39:34.905Z,55.80
2022-09-03T01:42:24.395Z,55.30
2022-09-03T01:45:22.401Z,55.70
2022-09-03T01:48:51.086Z,55.70
2022-09-03T01:51:29.477Z,55.60
2022-09-03T01:54:55.332Z,55.70
2022-09-03T01:57:46.023Z,56.00
2022-09-03T02:00:20.139Z,56.20
2022-09-03T02:02:51.607Z,55.50
2022-09-03T02:05:27.145Z,55.60
2022-09-03T02:08:01.449Z,55.70
2022-09-03T02:11:01.896Z,56.20
2022-09-03T02:13:41.886Z,56.40
2022-09-03T02:16:17.332Z,55.90
2022-09-03T02:18:51.179Z,56.20
2022-09-03T02:21:21.580Z,55.90
2022-09-03T02:23:50.215Z,56.00
2022-09-03T02:26:23.747Z,56.00
2022-09-03T02:28:53.170Z,56.30
2022-09-03T02:31:20.533Z,56.50
2022-09-03T02:33:50.829Z,56.10
2022-09-03T02:36:27.587Z,56.30
2022-09-03T02:38:54.829Z,56.40
2022-09-03T02:41:21.968Z,56.20
2022-09-03T02:44:13.943Z,56.30
2022-09-03T02:46:46.665Z,57.30
2022-09-03T02:49:13.749Z,56.70
2022-09-03T02:51:44.076Z,56.50
2022-09-03T02:54:12.314Z,56.70
2022-09-03T02:56:40.212Z,56.70
2022-09-03T02:59:09.300Z,56.90
2022-09-03T03:01:37.868Z,56.90
2022-09-03T03:04:05.063Z,57.10
2022-09-03T03:06:33.263Z,57.00
2022-09-03T03:09:00.205Z,57.10
2022-09-03T03:11:27.254Z,57.10
2022-09-03T03:13:54.130Z,57.20
2022-09-03T03:16:21.070Z,57.20
2022-09-03T03:18:47.990Z,57.30
2022-09-03T03:21:18.933Z,57.40
2022-09-03T03:23:45.843Z,57.50
2022-09-03T03:26:18.587Z,57.20
2022-09-03T03:28:48.786Z,57.20
2022-09-03T03:31:20.132Z,57.30
2022-09-03T03:33:55.326Z,57.60
2022-09-03T03:36:24.107Z,58.20
2022-09-03T03:38:55.670Z,57.70
2022-09-03T03:41:31.304Z,58.20
2022-09-03T03:44:05.453Z,58.80
2022-09-03T03:46:36.822Z,58.00
2022-09-03T03:49:06.391Z,58.20
2022-09-03T03:51:35.384Z,58.00
2022-09-03T03:54:05.198Z,58.10
2022-09-03T03:56:34.159Z,58.20
2022-09-03T03:59:01.155Z,58.10
2022-09-03T04:01:29.314Z,58.20
2022-09-03T04:03:58.714Z,58.40
2022-09-03T04:06:25.981Z,58.40
2022-09-03T04:08:53.034Z,58.40
2022-09-03T04:11:23.393Z,58.40
2022-09-03T04:13:52.211Z,58.60
2022-09-03T04:16:26.192Z,58.50
2022-09-03T04:18:57.482Z,59.00
2022-09-03T04:21:30.655Z,59.00
2022-09-03T04:23:58.601Z,59.10
2022-09-03T04:26:31.875Z,58.90
2022-09-03T04:29:08.618Z,59.20
2022-09-03T04:31:38.886Z,59.80
2022-09-03T04:34:06.940Z,59.20
2022-09-03T04:36:35.067Z,59.30
2022-09-03T04:39:02.678Z,59.30
2022-09-03T04:41:31.559Z,59.40
2022-09-03T04:44:00.081Z,59.40
2022-09-03T04:46:33.499Z,59.40
2022-09-03T04:49:01.976Z,59.50
2022-09-03T04:51:32.614Z,59.50
2022-09-03T04:54:02.302Z,59.60
2022-09-03T04:56:33.249Z,59.70
2022-09-03T04:59:09.806Z,59.70
2022-09-03T05:01:39.614Z,59.40
2022-09-03T05:04:08.085Z,59.50
2022-09-03T05:06:37.211Z,59.60
2022-09-03T05:09:05.333Z,59.60
2022-09-03T05:11:32.300Z,59.70
2022-09-03T05:14:00.394Z,59.70
2022-09-03T05:16:30.226Z,59.80
2022-09-03T05:19:01.115Z,60.00
2022-09-03T05:21:29.348Z,60.00
2022-09-03T05:23:56.826Z,60.20
2022-09-03T05:26:30.251Z,60.10
2022-09-03T05:29:03.053Z,60.40
2022-09-03T05:31:32.061Z,60.10
2022-09-03T05:34:03.596Z,60.00
2022-09-03T05:36:35.149Z,59.90
2022-09-03T05:39:02.206Z,59.70
2022-09-03T05:41:29.829Z,59.70
2022-09-03T05:43:59.012Z,59.50
2022-09-03T05:46:32.845Z,59.40
2022-09-03T05:49:06.385Z,59.30
2022-09-03T05:51:36.591Z,59.10
2022-09-03T05:54:04.029Z,58.90
2022-09-03T05:56:33.387Z,58.70
2022-09-03T05:59:05.753Z,58.80
2022-09-03T06:01:36.762Z,58.90
2022-09-03T06:04:21.977Z,58.80
2022-09-03T06:06:49.943Z,58.80
2022-09-03T06:09:23.296Z,59.00
2022-09-03T06:11:50.826Z,59.10
2022-09-03T06:14:19.987Z,59.10
2022-09-03T06:16:49.707Z,59.00
2022-09-03T06:19:17.698Z,58.80
2022-09-03T06:21:46.234Z,58.70
2022-09-03T06:24:19.007Z,58.30
2022-09-03T06:26:47.138Z,57.70
2022-09-03T06:29:14.400Z,57.90
2022-09-03T06:31:41.371Z,58.00
2022-09-03T06:34:08.622Z,57.90
2022-09-03T06:36:35.641Z,57.80
2022-09-03T06:39:02.571Z,57.50
2022-09-03T06:41:35.189Z,57.30
2022-09-03T06:44:06.118Z,56.90
2022-09-03T06:46:38.993Z,56.70
2022-09-03T06:49:06.245Z,56.50
2022-09-03T06:51:33.703Z,56.80
2022-09-03T06:54:05.786Z,56.70
2022-09-03T06:56:39.614Z,56.60
2022-09-03T06:59:13.737Z,56.50
2022-09-03T07:01:44.021Z,56.30
2022-09-03T07:04:13.595Z,56.20
2022-09-03T07:06:42.615Z,56.10
2022-09-03T07:09:12.348Z,56.10
2022-09-03T07:11:46.878Z,56.20
2022-09-03T07:14:16.944Z,56.10
2022-09-03T07:16:43.970Z,56.10
2022-09-03T07:19:13.299Z,56.00
2022-09-03T07:21:49.128Z,55.90
2022-09-03T07:24:18.175Z,55.90
2022-09-03T07:26:46.541Z,56.00
2022-09-03T07:29:15.768Z,56.10
2022-09-03T07:31:44.049Z,56.10
2022-09-03T07:34:14.091Z,56.30
2022-09-03T07:36:48.643Z,56.60
2022-09-03T07:39:17.944Z,56.80
2022-09-03T07:41:46.615Z,57.20
2022-09-03T07:44:16.266Z,57.30
2022-09-03T07:46:45.540Z,58.00
2022-09-03T07:49:12.898Z,57.80
2022-09-03T07:51:40.016Z,58.00
2022-09-03T07:54:11.366Z,58.20
2022-09-03T07:56:41.051Z,58.60
2022-09-03T07:59:09.564Z,58.80
2022-09-03T08:01:38.352Z,58.90
2022-09-03T08:04:09.629Z,59.20
2022-09-03T08:06:38.104Z,59.70
2022-09-03T08:09:13.479Z,59.90
2022-09-03T08:11:46.083Z,59.90
2022-09-03T08:14:14.171Z,60.00
2022-09-03T08:16:47.942Z,60.20
2022-09-03T08:19:15.626Z,60.80
2022-09-03T08:21:42.637Z,60.90
2022-09-03T08:24:11.187Z,61.20
2022-09-03T08:26:50.622Z,61.30
2022-09-03T08:29:19.066Z,61.40
2022-09-03T08:31:45.959Z,61.40
2022-09-03T08:34:14.672Z,61.50
2022-09-03T08:36:41.711Z,61.50
2022-09-03T08:39:11.249Z,61.40
2022-09-03T08:42:11.985Z,61.50
2022-09-03T08:45:17.767Z,62.00
2022-09-03T08:47:58.288Z,62.00
2022-09-03T08:50:38.582Z,61.80
2022-09-03T08:53:30.304Z,61.60
2022-09-03T08:56:24.708Z,62.20
2022-09-03T08:58:51.900Z,62.30
2022-09-03T09:01:33.532Z,61.80
2022-09-03T09:04:15.230Z,61.10
2022-09-03T09:07:13.006Z,60.60
2022-09-03T09:10:47.023Z,60.50
2022-09-03T09:14:06.057Z,59.60
2022-09-03T09:16:59.851Z,59.70
2022-09-03T09:19:47.135Z,59.80
2022-09-03T09:22:41.853Z,59.00
2022-09-03T09:25:21.038Z,56.60
2022-09-03T09:28:08.427Z,55.80
2022-09-03T09:30:35.892Z,54.20
2022-09-03T09:33:02.754Z,54.80
2022-09-03T09:35:29.600Z,54.20
2022-09-03T09:38:00.227Z,54.20
2022-09-03T09:40:35.885Z,54.40
2022-09-03T09:43:15.985Z,54.40
2022-09-03T09:45:49.152Z,53.20
2022-09-03T09:48:40.126Z,55.00
2022-09-03T09:51:19.581Z,49.90
2022-09-03T09:53:47.002Z,51.80
2022-09-03T09:56:26.384Z,51.40
2022-09-03T09:59:08.845Z,48.70
2022-09-03T10:01:41.651Z,49.00
2022-09-03T10:04:33.440Z,49.40
2022-09-03T10:07:27.262Z,48.50
2022-09-03T10:10:19.564Z,49.00
2022-09-03T10:13:12.570Z,48.00
2022-09-03T10:15:57.923Z,48.30
2022-09-03T10:18:45.853Z,49.90
2022-09-03T10:21:27.328Z,48.90
2022-09-03T10:24:21.776Z,49.10
2022-09-03T10:26:48.630Z,48.20
2022-09-03T10:29:21.725Z,49.30
2022-09-03T10:32:16.735Z,47.80
2022-09-03T10:35:16.685Z,47.00
2022-09-03T10:38:01.155Z,46.30
2022-09-03T10:40:44.805Z,46.50
2022-09-03T10:43:32.557Z,45.40
2022-09-03T10:46:03.328Z,46.50
2022-09-03T10:48:52.659Z,46.50
2022-09-03T10:51:34.963Z,45.60
2022-09-03T10:54:31.157Z,46.10
2022-09-03T10:57:42.412Z,46.80
2022-09-03T11:00:13.209Z,46.10
2022-09-03T11:03:07.914Z,46.90
2022-09-03T11:05:53.390Z,46.90
2022-09-03T11:08:34.733Z,46.70
2022-09-03T11:11:21.679Z,45.80
2022-09-03T11:14:00.109Z,45.00
2022-09-03T11:16:36.330Z,45.10
2022-09-03T11:19:13.109Z,44.90
2022-09-03T11:21:44.037Z,45.50
2022-09-03T11:24:27.087Z,45.40
2022-09-03T11:27:07.450Z,43.80
2022-09-03T11:29:49.551Z,44.10
2022-09-03T11:32:24.268Z,44.50
2022-09-03T11:34:54.787Z,45.00
2022-09-03T11:37:25.100Z,45.30
2022-09-03T11:40:19.772Z,46.30
2022-09-03T11:42:47.699Z,44.30
2022-09-03T11:45:26.426Z,45.40
2022-09-03T11:47:54.415Z,45.30
2022-09-03T11:50:25.524Z,45.00
2022-09-03T11:53:07.631Z,44.90
2022-09-03T11:56:06.833Z,44.40
2022-09-03T11:58:37.656Z,43.70
2022-09-03T12:01:15.000Z,44.80
2022-09-03T12:04:03.405Z,44.90
2022-09-03T12:07:05.143Z,43.60
2022-09-03T12:09:51.561Z,43.80
2022-09-03T12:12:32.325Z,44.50
2022-09-03T12:15:26.916Z,43.40
2022-09-03T12:18:21.649Z,42.20
2022-09-03T12:21:03.940Z,43.80
2022-09-03T12:23:46.043Z,42.30
2022-09-03T12:26:17.024Z,42.70
2022-09-03T12:28:49.020Z,44.10
2022-09-03T12:31:22.643Z,43.90
2022-09-03T12:33:59.034Z,44.30
2022-09-03T12:36:47.933Z,44.30
2022-09-03T12:42:30.736Z,43.50
2022-09-03T12:45:09.257Z,43.40
2022-09-03T12:47:40.905Z,44.00
2022-09-03T12:50:16.983Z,44.00
2022-09-03T12:52:58.419Z,44.70
2022-09-03T12:55:51.754Z,44.60
2022-09-03T12:58:25.278Z,43.20
2022-09-03T13:01:07.264Z,43.80
2022-09-03T13:04:19.251Z,44.10
2022-09-03T13:07:06.638Z,43.60
2022-09-03T13:09:39.237Z,44.30
2022-09-03T13:12:07.322Z,43.50
2022-09-03T13:14:48.622Z,43.60
2022-09-03T13:17:48.973Z,41.70
2022-09-03T13:20:21.106Z,43.20
2022-09-03T13:23:09.839Z,44.10
2022-09-03T13:26:11.758Z,41.30
2022-09-03T13:29:23.376Z,40.60
2022-09-03T13:32:06.151Z,41.70
2022-09-03T13:34:43.086Z,42.20
2022-09-03T13:37:40.824Z,43.00
2022-09-03T13:40:44.767Z,43.20
2022-09-03T13:43:42.491Z,43.30
2022-09-03T13:46:29.733Z,41.50
2022-09-03T13:49:58.640Z,41.30
2022-09-03T13:52:43.568Z,40.40
2022-09-03T13:55:26.625Z,40.90
2022-09-03T13:58:21.892Z,40.60
2022-09-03T14:00:58.233Z,40.40
2022-09-03T14:03:48.939Z,40.40
2022-09-03T14:06:50.778Z,40.50
2022-09-03T14:09:36.080Z,41.60
2022-09-03T14:12:23.905Z,41.40
2022-09-03T14:14:56.525Z,41.80
2022-09-03T14:17:42.242Z,43.00
2022-09-03T14:20:19.335Z,42.60
2022-09-03T14:23:47.077Z,42.90
2022-09-03T14:26:39.642Z,42.60
2022-09-03T14:29:12.590Z,42.90
2022-09-03T14:32:29.238Z,43.20
2022-09-03T14:35:26.524Z,43.30
2022-09-03T14:38:17.192Z,43.70
2022-09-03T14:40:49.517Z,44.10
2022-09-03T14:43:22.141Z,44.70
2022-09-03T14:46:10.106Z,44.40
2022-09-03T14:49:23.044Z,46.70
2022-09-03T14:52:30.667Z,49.00
2022-09-03T14:55:26.307Z,51.40
2022-09-03T14:58:27.251Z,55.10
2022-09-03T15:01:13.161Z,57.10
2022-09-03T15:04:13.398Z,58.10
2022-09-03T15:07:09.066Z,60.50
2022-09-03T15:10:02.542Z,61.90
2022-09-03T15:12:46.211Z,63.90
2022-09-03T15:15:24.746Z,64.60
2022-09-03T15:18:00.163Z,65.60
2022-09-03T15:20:54.807Z,66.50
2022-09-03T15:23:48.635Z,67.90
2022-09-03T15:26:53.518Z,68.70
2022-09-03T15:29:46.409Z,70.20
2022-09-03T15:32:29.319Z,70.40
2022-09-03T15:35:11.018Z,71.10
2022-09-03T15:37:57.840Z,71.50
2022-09-03T15:40:57.083Z,71.50
2022-09-03T15:43:33.914Z,71.10
2022-09-03T15:46:28.854Z,72.00
2022-09-03T15:49:31.850Z,72.10
2022-09-03T15:52:29.223Z,72.80
2022-09-03T15:55:08.300Z,73.20
2022-09-03T15:57:54.791Z,73.80
2022-09-03T16:00:22.822Z,74.40
2022-09-03T16:02:59.024Z,74.60
2022-09-03T16:05:50.834Z,75.20
2022-09-03T16:08:54.800Z,75.20
2022-09-03T16:11:52.074Z,75.80
2022-09-03T16:14:31.627Z,75.90
2022-09-03T16:17:51.107Z,76.80
2022-09-03T16:20:38.097Z,76.80
2022-09-03T16:23:16.518Z,80.60
2022-09-03T16:25:59.173Z,87.90
2022-09-03T16:29:04.650Z,90.00
2022-09-03T16:32:02.421Z,90.20
2022-09-03T16:35:08.886Z,91.60
2022-09-03T16:38:03.158Z,85.60
2022-09-03T16:40:51.940Z,82.30
2022-09-03T16:44:10.451Z,79.50
2022-09-03T16:47:19.543Z,77.60
2022-09-03T16:57:24.439Z,71.50
2022-09-03T17:00:10.968Z,68.10
2022-09-03T17:03:12.508Z,70.10
2022-09-03T17:06:06.221Z,65.50
2022-09-03T17:08:51.835Z,67.40
2022-09-03T17:11:38.430Z,67.60
2022-09-03T17:14:31.085Z,65.40
2022-09-03T17:17:33.804Z,65.00
2022-09-03T17:20:16.388Z,67.10
2022-09-03T17:22:51.542Z,67.10
2022-09-03T17:25:49.988Z,68.90
2022-09-03T17:28:57.850Z,67.30
2022-09-03T17:31:52.456Z,67.80
2022-09-03T17:34:47.960Z,69.40
2022-09-03T17:38:04.541Z,69.50
2022-09-03T17:41:31.060Z,69.70
2022-09-03T17:44:43.976Z,70.90
2022-09-03T17:47:44.642Z,72.00
2022-09-03T17:50:11.429Z,72.80
2022-09-03T17:52:57.118Z,74.70
2022-09-03T17:55:42.132Z,73.60
2022-09-03T17:58:30.441Z,75.10
2022-09-03T18:01:26.151Z,74.70
2022-09-03T18:04:12.810Z,74.50
2022-09-03T18:06:55.484Z,75.50
2022-09-03T18:09:45.961Z,76.00
2022-09-03T18:13:03.658Z,75.30
2022-09-03T18:16:17.850Z,75.20
2022-09-03T18:18:53.385Z,75.70
2022-09-03T18:21:46.771Z,76.20
2022-09-03T18:25:00.650Z,76.70
2022-09-03T18:28:09.124Z,76.50
2022-09-03T18:30:54.604Z,75.90
2022-09-03T18:33:44.373Z,77.30
2022-09-03T18:36:33.151Z,77.30
2022-09-03T18:39:47.718Z,77.20
2022-09-03T18:42:52.052Z,76.30
2022-09-03T18:46:55.406Z,77.20
2022-09-03T18:49:32.057Z,76.40
2022-09-03T18:52:37.148Z,77.50
2022-09-03T18:55:53.385Z,77.10
2022-09-03T18:59:12.741Z,77.20
2022-09-03T19:02:01.487Z,77.10
2022-09-03T19:05:15.362Z,78.00
2022-09-03T19:08:31.711Z,77.60
2022-09-03T19:12:03.197Z,77.40
2022-09-03T19:15:11.251Z,77.60
2022-09-03T19:18:35.475Z,78.10
2022-09-03T19:21:46.229Z,77.30
2022-09-03T19:24:31.602Z,77.80
2022-09-03T19:27:58.867Z,78.40
2022-09-03T19:31:01.680Z,77.60
2022-09-03T19:33:52.917Z,78.50
2022-09-03T19:36:57.580Z,78.80
2022-09-03T19:40:42.661Z,78.40
2022-09-03T19:43:47.694Z,77.90
2022-09-03T19:47:14.493Z,78.90
2022-09-03T19:50:31.959Z,78.00
2022-09-03T19:53:32.055Z,78.10
2022-09-03T19:56:22.158Z,78.50
2022-09-03T19:59:16.758Z,79.00
2022-09-03T20:02:04.796Z,79.60
2022-09-03T20:05:10.574Z,79.30
2022-09-03T20:07:58.162Z,78.60
2022-09-03T20:10:25.595Z,79.40
2022-09-03T20:13:13.575Z,79.40
2022-09-03T20:16:14.050Z,78.50
2022-09-03T20:19:02.242Z,78.80
2022-09-03T20:21:50.538Z,79.40
2022-09-03T20:25:14.688Z,80.00
2022-09-03T20:27:58.562Z,78.60
2022-09-03T20:31:06.112Z,79.20
2022-09-03T20:34:03.678Z,79.10
2022-09-03T20:37:27.896Z,79.20
2022-09-03T20:40:28.727Z,78.80
2022-09-03T20:44:02.463Z,79.00
2022-09-03T20:46:48.463Z,78.80
2022-09-03T20:50:14.886Z,79.50
2022-09-03T20:53:10.282Z,79.00
2022-09-03T20:55:44.666Z,79.60
2022-09-03T20:58:26.042Z,79.90
2022-09-03T21:01:07.480Z,79.50
2022-09-03T21:04:04.152Z,80.00
2022-09-03T21:06:45.095Z,80.10
2022-09-03T21:09:53.072Z,79.80
2022-09-03T21:12:38.124Z,79.30
2022-09-03T21:15:32.201Z,80.30
2022-09-03T21:18:52.734Z,79.40
2022-09-03T21:21:56.206Z,79.30
2022-09-03T21:24:38.422Z,79.60
2022-09-03T21:27:20.819Z,80.10
2022-09-03T21:30:02.565Z,80.10
2022-09-03T21:32:48.626Z,80.00
2022-09-03T21:35:34.777Z,80.20
2022-09-03T21:38:22.704Z,79.80
2022-09-03T21:41:32.209Z,80.10
2022-09-03T21:44:40.522Z,79.90
2022-09-03T21:47:14.790Z,79.60
2022-09-03T21:50:06.998Z,80.30
2022-09-03T21:52:46.532Z,80.10
2022-09-03T21:55:59.942Z,80.30
2022-09-03T21:58:36.102Z,79.50
2022-09-03T22:01:20.235Z,80.10
2022-09-03T22:03:47.326Z,80.10
2022-09-03T22:06:30.790Z,80.50
2022-09-03T22:09:07.454Z,80.00
2022-09-03T22:12:20.300Z,80.60
2022-09-03T22:14:53.281Z,79.30
2022-09-03T22:17:46.825Z,80.30
2022-09-03T22:20:15.887Z,79.80
2022-09-03T22:23:21.105Z,80.30
2022-09-03T22:26:07.426Z,79.20
2022-09-03T22:29:02.461Z,79.60
2022-09-03T22:31:42.805Z,79.70
2022-09-03T22:34:22.224Z,80.20
2022-09-03T22:37:01.976Z,80.10
2022-09-03T22:39:46.126Z,79.80
2022-09-03T22:42:28.389Z,79.90
2022-09-03T22:45:38.270Z,79.70
2022-09-03T22:48:46.600Z,79.60
2022-09-03T22:51:13.649Z,79.60
2022-09-03T22:54:23.232Z,80.70
2022-09-03T22:56:52.758Z,79.70
2022-09-03T22:59:29.713Z,80.80
2022-09-03T23:02:13.718Z,80.60
2022-09-03T23:05:06.179Z,80.90
2022-09-03T23:07:57.244Z,80.00
2022-09-03T23:10:42.921Z,79.80
2022-09-03T23:13:25.441Z,79.30
2022-09-03T23:16:12.157Z,80.10
2022-09-03T23:18:44.474Z,80.30
2022-09-03T23:21:39.128Z,80.90
2022-09-03T23:24:45.090Z,80.50
2022-09-03T23:27:20.488Z,80.20
2022-09-03T23:30:06.969Z,80.60
2022-09-03T23:32:34.221Z,79.90
2022-09-03T23:35:11.672Z,80.90
2022-09-03T23:38:27.507Z,80.70
2022-09-03T23:41:04.129Z,80.20
2022-09-03T23:43:47.114Z,80.40
2022-09-03T23:46:16.692Z,80.50
2022-09-03T23:48:46.281Z,80.80
2022-09-03T23:52:13.206Z,80.60
2022-09-03T23:55:10.937Z,79.50
2022-09-03T23:57:41.830Z,80.50
